79J

South Alabama Regional at Bill Benton Field Airport

Andalusia, Alabama, USA
METAR K79J 182256Z AUTO 00000KT 10SM CLR 14/06 A3007 RMK AO2 SLP182 T01440061
Observed Flight Rules
Dec-18 @ 22:56 UTC (23 minutes ago) Visual Flight Rules
Visibility Clouds
10 miles
  • Clear skies
Temperatures Readings
Current 14°C / 57°F
Dewpoint 6°C / 43°F
Humidity 59%
Altimeter 30.07" Hg
Pressure 1018.2 hPa
Elevation 94
METAR K79J 182256Z AUTO 00000KT 10SM CLR 14/06 A3007 RMK AO2 SLP182 T01440061
Observed Flight Rules
Dec-18 @ 22:56 UTC
(23 minutes ago)
VFR
Clouds
  • Clear skies
Temperature Dewpoint
14°C / 57°F 6°C / 43°F
Humidity Altimeter Pressure
59% 30.07" Hg 1018.2 hPa